Waterville, WA

8:10 AM PDT on September 17, 2014 (GMT -0700)
RAWS DOUGLAS WA US | Change Station
CLOSE
Current Station
Personal Weather Station
Location: Waterville, WA
Elevation: 2529 ft
Nearby Weather Stations

Elev 2529 ft 47.62 °N, 119.90 °W | Updated 1 hour ago

Clear
Clear
58.0 °F
Feels Like 58.0 °F
N
0.0
Wind Variable Wind from North
Gusts 7.0 mph

Today
High -- | Low -- °F
--% Chance of Precip.
Yesterday
High -- | Low -- °F
Precip. -- in
6:39 AM 7:07 PM
Waning Crescent, 35% visible
Pressure 29.75 in
Visibility 10.0 miles
Clouds Clear
Dew Point 37.0 °F
Humidity 46%
Rainfall 0.00 in
Snow Depth 0 in , 2 in , 0 in
UV 1 out of 12
Pollen 2.80 out of 12
Air Quality Not available.
Flu Activity Not available.
METAR KEAT 171455Z AUTO 00000KT 10SM CLR 19/08 A2977 RMK AO2 SLP073 T01890078 53004

More Conditions Fewer Conditions

Pressure 29.75 in
Visibility 10.0 miles
Clouds Clear
Dew Point 37.0 °F
Humidity 46%
Rainfall 0.00 in
Snow Depth 0 in , 2 in , 0 in
UV 1 out of 12
Pollen 2.80 out of 12
Air Quality Not available.
Flu Activity Not available.
METAR KEAT 171455Z AUTO 00000KT 10SM CLR 19/08 A2977 RMK AO2 SLP073 T01890078 53004

More Conditions Fewer Conditions

10-Day Weather Forecast

Almanac

Astronomy

Sep. 17, 2014 Rise Set
Actual Time 6:39 AM PDT 7:07 PM PDT
Civil Twilight 6:08 AM PDT 7:38 PM PDT
Nautical Twilight 5:32 AM PDT 8:14 PM PDT
Astronomical Twilight 4:54 AM PDT 8:52 PM PDT
Moon 12:25 AM PDT 3:37 PM PDT
Length of Visible Light 13h 29m
Length of Day
12h 27m
Tomorrow will be 3m 24s shorter.
Waning Crescent, 35% of the Moon is Illuminated
Today
Waning Crescent
Sep 24
New
Oct 1
First Quarter
Oct 8
Full
Oct 15
Last Quarter

Today's Extremes

State Highs State Lows

Community

WunderPhotos

Upload Photos

1,754,067 photos uploaded!

WunderBlogs® & News

Nearby

Snow Depth

Station Depth Elevation
Trough 0 in 5300 ft
Stampede Pass 2 in 3860 ft
Stevens Pass 0 in 4070 ft
Bunchgrass Meadow 0 in 5000 ft
Sourdough Gulch 0 in 4000 ft

Earthquake Activity

City Distance Mag. Time & Date
No recent earthquake activity has been reported nearby.
Minimum magnitude displayed is 2.5.

Coastal Water Temperatures

Place Temperature
No Stations Reporting

Nearby Weather Stations